This is the latest recevied weather packets stored in our database for station/object CE4ERM-13. If no packets are shown the sender has not sent any weather packets the latest 1 day(s).
| Time | Temp. | Humidity | Pressure | Rain* | Wind** | Luminosity | Snow |
|---|---|---|---|---|---|---|---|
| 1777849756 | 25° C | 25% | 1018.4 hPa | - | - | - | - |
| 1777849628 | 25° C | 25% | 1018.4 hPa | - | - | - | - |
| 1777849196 | 23.89° C | 30% | 1018.3 hPa | - | - | - | - |
| 1777849028 | 25.56° C | 25% | 1018.1 hPa | - | - | - | - |
| 1777848595 | 24.44° C | 29% | 1017.9 hPa | - | - | - | - |
| 1777848428 | 25.56° C | 25% | 1020.5 hPa | - | - | - | - |
| 1777847996 | 24.44° C | 29% | 1018.1 hPa | - | - | - | - |
| 1777847828 | 25° C | 25% | 1017.6 hPa | - | - | - | - |
| 1777847395 | 24.44° C | 29% | 1020.9 hPa | - | - | - | - |
| 1777847228 | 27.22° C | 24% | 1019.2 hPa | - | - | - | - |
| 1777846795 | 24.44° C | 29% | 1020.4 hPa | - | - | - | - |
| 1777846628 | 28.33° C | 22% | 1017.2 hPa | - | - | - | - |
| 1777846193 | 24.44° C | 32% | 1016.3 hPa | - | - | - | - |
| 1777846026 | 27.22° C | 22% | 1018.2 hPa | - | - | - | - |
| 1777845594 | 24.44° C | 31% | 1019.1 hPa | - | - | - | - |
| 1777845475 | 27.78° C | 21% | 1015.4 hPa | - | - | - | - |
| 1777845427 | 27.78° C | 21% | 1015.4 hPa | - | - | - | - |
| 1777844993 | 24.44° C | 30% | 1019.7 hPa | - | - | - | - |
| 1777844393 | 24.44° C | 29% | 1016.8 hPa | - | - | - | - |
| 1777843793 | 25° C | 29% | 1016.9 hPa | - | - | - | - |
| 1777841823 | 30° C | 17% | 1016.7 hPa | - | - | - | - |
| 1777840622 | 31.11° C | 16% | 1016.1 hPa | - | - | - | - |
| 1777840243 | 25° C | 32% | 1017.6 hPa | - | - | - | - |
| 1777840021 | 31.11° C | 17% | 1016.4 hPa | - | - | - | - |
| 1777839420 | 31.67° C | 18% | 1016.7 hPa | - | - | - | - |
* Rain since midnight (hover to see other rain measurements)
** Current wind speed in m/s (hover to see current wind gust speed)